Weather observations for the past three days for
Newport, Newport Municipal Airport
Metric (Imperial)
Date Time (cdt) Wind (kph) Vis. (km) Weather Sky Cond. Temperature (ºC) Relative Humidity Wind Chill (°C) Heat Index (°C) Pressure Precipitation (cm)
Air Dwpt 6 hour altimeter (cm) sea level (mb) 1 hr 3 hr 6 hr
Max. Min.
02 08:56 Calm 16.09 Fair CLR 29.4 22.2 65% 33 76.4 1019.7
02 07:56 SW 6 16.09 A Few Clouds FEW002 26.1 21.7 77% 28 76.38 1019.3
02 06:56 SE 7 16.09 Fair CLR 22.8 21.7 26.7 22.2 94% 76.35 1018.8
02 05:56 E 7 16.09 Fair CLR 22.2 21.1 94% 76.3 1018.3
02 04:56 Calm 16.09 Fair CLR 23.3 21.1 88% 76.28 1017.9
02 03:56 SE 7 16.09 Fair CLR 22.8 21.1 90% 76.28 1017.7
02 02:56 Calm 16.09 Fair CLR 25 21.7 82% 26 76.25 1017.5
02 01:56 Calm 16.09 Fair CLR 24.4 21.7 85% 25 76.28 1018.0
02 00:56 S 7 16.09 Fair CLR 26.1 21.7 34.4 25 77% 28 76.28 1017.7
01 23:56 S 7 16.09 Fair CLR 26.1 21.7 77% 28 76.25 1017.4
01 22:56 SE 7 16.09 Fair CLR 26.1 21.7 77% 28 76.23 1017.1
01 21:56 SE 11 16.09 Fair CLR 27.2 21.7 72% 29 76.2 1017.0
01 20:56 SE 11 16.09 Fair CLR 28.3 21.1 65% 31 76.17 1016.6
01 19:56 SE 9 16.09 Fair CLR 30 21.7 61% 33 76.15 1016.3
01 18:56 S 7 16.09 Fair CLR 34.4 20.6 37.8 34.4 44% 37 76.17 1016.5
01 17:56 S 17 16.09 Fair CLR 36.7 19.4 36% 39 76.17 1016.7
01 16:56 SE 20 16.09 Fair CLR 36.7 19.4 36% 39 76.17 1016.6
01 15:56 SE 17 16.09 Fair CLR 37.2 20.6 38% 41 76.2 1017.0
01 14:56 SE 13 16.09 Fair CLR 36.7 20.6 39% 40 76.25 1017.4
01 13:56 Vrbl 7 16.09 A Few Clouds FEW060 36.1 20 39% 39 76.28 1018.0
01 12:56 Vrbl 11 16.09 Fair CLR 36.1 21.1 36.1 22.8 42% 40 76.35 1018.7
01 11:56 SE 11 16.09 Fair CLR 35.6 21.1 43% 39 76.4 1019.5
01 10:56 W 9 16.09 Fair CLR 33.9 21.7 49% 38 76.43 1019.9
01 09:56 Vrbl 6 16.09 Fair CLR 31.7 22.2 57% 36 76.45 1020.2
01 08:56 SW 6 16.09 Fair CLR 29.4 22.2 65% 33 76.45 1020.3
01 07:56 S 7 16.09 Fair CLR 26.1 21.7 77% 28 76.45 1020.2
01 06:56 S 6 16.09 Fair CLR 22.8 21.1 25 22.2 90% 76.4 1019.8
01 05:56 E 6 16.09 Fair CLR 22.2 20.6 91% 76.38 1019.2
01 04:56 NW 7 16.09 Fair CLR 22.2 20.6 91% 76.35 1018.9
01 03:56 S 6 16.09 Fair CLR 23.3 21.1 88% 76.3 1018.3
01 02:56 S 7 16.09 Fair CLR 24.4 21.1 82% 25 76.3 1018.1
01 01:56 Calm 16.09 Fair CLR 23.9 21.7 88% 24 76.3 1018.1
01 00:56 Calm 16.09 Fair CLR 24.4 21.7 33.3 24.4 85% 25 76.3 1018.1
31 23:56 Calm 16.09 Fair CLR 25 21.7 82% 26 76.3 1018.2
31 22:56 Calm 16.09 Fair CLR 27.8 21.1 67% 30 76.28 1018.0
31 21:56 SE 6 16.09 Fair CLR 26.7 21.1 71% 28 76.28 1017.8
31 20:56 S 6 16.09 Fair CLR 27.8 21.1 67% 30 76.23 1017.4
31 19:56 S 9 16.09 Fair CLR 28.3 21.1 65% 31 76.2 1016.8
31 18:56 S 9 16.09 Fair CLR 33.3 21.1 37.2 33.3 49% 37 76.17 1016.7
31 17:56 SE 15 16.09 Fair CLR 35.6 20.6 41% 39 76.2 1016.8
31 16:56 SE 15 16.09 Fair CLR 36.1 20.6 40% 39 76.23 1017.2
31 15:56 SE 15 16.09 Fair CLR 36.1 20.6 40% 39 76.25 1017.5
31 14:56 S 13 16.09 Fair CLR 36.1 19.4 37% 38 76.3 1018.1
31 13:56 SE 17 G 30 16.09 Fair CLR 36.1 20.6 40% 39 76.33 1018.7
31 12:56 S 15 16.09 Fair CLR 35.6 20.6 35.6 20.6 41% 39 76.38 1019.3
31 11:56 Vrbl 6 16.09 Fair CLR 33.9 21.7 49% 38 76.43 1020.0
31 10:56 S 13 16.09 Fair CLR 32.2 21.7 54% 36 76.45 1020.3
31 08:56 S 13 16.09 Fair CLR 27.8 21.7 69% 30 76.43 1020.1
31 07:56 S 7 16.09 A Few Clouds FEW002 24.4 21.1 82% 25 76.43 1019.9
31 06:56 Calm 12.87 Fair CLR 20.6 19.4 24.4 20.6 93% 76.38 1019.3
31 05:56 S 6 16.09 Fair CLR 21.7 20 90% 76.33 1018.7
31 04:56 S 6 16.09 Fair CLR 21.1 19.4 90% 76.3 1018.2
31 03:56 Calm 16.09 Fair CLR 22.8 19.4 81% 76.28 1017.9
31 02:56 SW 7 16.09 Fair CLR 24.4 19.4 74% 25 76.25 1017.4
31 01:56 S 11 16.09 Fair CLR 22.8 18.9 79% 76.25 1017.7
31 00:56 SE 11 16.09 Fair CLR 23.3 18.9 32.8 22.8 76% 76.28 1018.0
30 23:56 SE 6 16.09 Fair CLR 23.3 19.4 79% 76.28 1017.8
30 22:56 SE 7 16.09 Fair CLR 23.9 18.9 74% 25 76.25 1017.7
30 21:56 S 7 16.09 Fair CLR 26.1 18.9 65% 27 76.25 1017.7
30 20:56 S 9 16.09 Fair CLR 27.2 18.9 61% 28 76.23 1017.2
30 19:56 S 6 16.09 Fair CLR 28.9 18.9 55% 30 76.17 1016.5
30 18:56 S 9 16.09 Fair CLR 32.8 17.8 36.1 32.8 41% 34 76.17 1016.6
30 17:56 S 13 16.09 Fair CLR 35 15.6 31% 35 76.17 1016.7
30 16:56 SE 17 16.09 Fair CLR 35.6 15 29% 35 76.2 1016.8
30 15:56 SE 17 16.09 Fair CLR 35.6 16.1 31% 36 76.2 1017.1
30 14:56 S 20 16.09 Fair CLR 35.6 15 29% 35 76.28 1018.0
30 13:56 SW 19 16.09 Fair CLR 34.4 13.9 29% 34 76.3 1018.5
30 12:56 S 20 G 28 16.09 Fair CLR 34.4 13.9 34.4 17.2 29% 34 76.35 1018.9
30 11:56 S 22 16.09 Fair CLR 33.3 16.1 36% 33 76.4 1019.6
30 10:56 SW 15 16.09 Fair CLR 31.1 17.8 45% 32 76.4 1019.6
30 09:56 S 11 16.09 Fair CLR 27.8 16.1 49% 28 76.4 1019.7
Date Time (cdt) Wind (kph) Vis. (km) Weather Sky Cond. Air Dwpt Max. Min. Relative Humidity Wind Chill (°C) Heat Index (°C) altimeter (cm) sea level (mb) 1 hr 3 hr 6 hr
6 hour
Temperature (ºC) Pressure Precipitation (cm)